Time;durP1;ratioP1;P1;durP2;ratioP2;P2;SDS_P1;SDS_P2;PMS_P1;PMS_P2;Temp;Humidity;BMP_temperature;BMP_pressure;BME280_temperature;BME280_humidity;BME280_pressure;Samples;Min_cycle;Max_cycle;Signal;HPM_P1;HPM_P2
2022/08/16 00:01:03;;;;;;;;;;;21.10;52.80;;;;;;482374;247;2408;-51
2022/08/16 00:03:05;;;;;;;;;;;21.10;52.90;;;;;;482501;247;1266;-51
2022/08/16 00:05:06;;;;;;;;;;;21.10;52.80;;;;;;482450;247;1213;-51
2022/08/16 00:07:07;;;;;;;;;;;21.10;52.90;;;;;;481611;247;1250;-51
2022/08/16 00:09:09;;;;;;;;;;;21.10;52.90;;;;;;482291;247;1304;-51
2022/08/16 00:11:10;;;;;;;;;;;21.10;52.90;;;;;;482087;246;1341;-52
2022/08/16 00:13:11;;;;;;;;;;;21.10;52.80;;;;;;482090;247;1293;-52
2022/08/16 00:15:13;;;;;;;;;;;21.10;52.90;;;;;;482391;247;1197;-51
2022/08/16 00:17:14;;;;;;;;;;;21.10;52.90;;;;;;482080;247;1271;-52
2022/08/16 00:19:15;;;;;;;;;;;21.10;52.90;;;;;;482157;246;1378;-52
2022/08/16 00:21:17;;;;;;;;;;;21.10;52.90;;;;;;482562;247;2197;-51
2022/08/16 00:23:18;;;;;;;;;;;21.10;52.90;;;;;;482248;247;1012;-51
2022/08/16 00:25:19;;;;;;;;;;;21.10;52.90;;;;;;482256;247;1044;-51
2022/08/16 00:27:20;;;;;;;;;;;21.10;52.90;;;;;;482293;247;1245;-52
2022/08/16 00:29:22;;;;;;;;;;;21.10;53.00;;;;;;482260;246;1085;-52
2022/08/16 00:31:23;;;;;;;;;;;21.10;52.90;;;;;;482077;247;1094;-51
2022/08/16 00:33:24;;;;;;;;;;;21.10;52.90;;;;;;481673;247;1178;-51
2022/08/16 00:35:26;;;;;;;;;;;21.10;53.00;;;;;;482300;246;1216;-51
2022/08/16 00:37:27;;;;;;;;;;;21.10;53.00;;;;;;482210;247;1148;-52
2022/08/16 00:39:29;;;;;;;;;;;21.10;53.00;;;;;;482216;246;1211;-51
2022/08/16 00:41:30;;;;;;;;;;;21.10;53.00;;;;;;481975;247;2173;-52
2022/08/16 00:43:32;;;;;;;;;;;21.10;53.00;;;;;;482232;247;1231;-51
2022/08/16 00:45:33;;;;;;;;;;;21.10;53.00;;;;;;482268;247;1235;-51
2022/08/16 00:47:34;;;;;;;;;;;21.10;53.00;;;;;;482402;247;1309;-51
2022/08/16 00:49:36;;;;;;;;;;;21.10;53.00;;;;;;482188;246;1577;-51
2022/08/16 00:51:37;;;;;;;;;;;21.10;53.00;;;;;;482105;246;1291;-51
2022/08/16 00:53:38;;;;;;;;;;;21.10;53.00;;;;;;482209;247;1601;-52
2022/08/16 00:55:40;;;;;;;;;;;21.10;53.00;;;;;;482297;246;1232;-51
2022/08/16 00:57:41;;;;;;;;;;;21.10;53.00;;;;;;481489;247;1234;-51
2022/08/16 00:59:42;;;;;;;;;;;21.10;53.00;;;;;;477473;247;1286;-51
2022/08/16 01:01:44;;;;;;;;;;;21.10;53.00;;;;;;482112;247;2157;-51
2022/08/16 01:03:45;;;;;;;;;;;21.10;53.00;;;;;;479649;247;1261;-52
2022/08/16 01:05:46;;;;;;;;;;;21.10;53.00;;;;;;482433;246;1290;-52
2022/08/16 01:07:48;;;;;;;;;;;21.10;53.00;;;;;;482076;247;1432;-51
2022/08/16 01:09:49;;;;;;;;;;;21.10;53.10;;;;;;482153;247;1220;-51
2022/08/16 01:11:51;;;;;;;;;;;21.10;53.10;;;;;;482189;247;1264;-51
2022/08/16 01:13:52;;;;;;;;;;;21.10;53.00;;;;;;482094;247;1608;-51
2022/08/16 01:15:53;;;;;;;;;;;21.10;53.00;;;;;;482063;247;1731;-52
2022/08/16 01:17:54;;;;;;;;;;;21.10;53.00;;;;;;482406;246;1501;-51
2022/08/16 01:19:56;;;;;;;;;;;21.10;53.00;;;;;;482170;246;1210;-51
2022/08/16 01:21:57;;;;;;;;;;;21.10;53.00;;;;;;482100;247;2185;-51
2022/08/16 01:23:59;;;;;;;;;;;21.10;53.00;;;;;;482227;247;1212;-51
2022/08/16 01:26:00;;;;;;;;;;;21.10;53.00;;;;;;482122;247;1302;-51
2022/08/16 01:28:01;;;;;;;;;;;21.10;53.00;;;;;;482151;246;1238;-51
2022/08/16 01:30:03;;;;;;;;;;;21.10;53.00;;;;;;482106;247;1220;-51
2022/08/16 01:32:04;;;;;;;;;;;21.10;53.00;;;;;;482145;247;1250;-51
2022/08/16 01:34:05;;;;;;;;;;;21.10;53.10;;;;;;482035;247;1310;-51
2022/08/16 01:36:07;;;;;;;;;;;21.10;53.10;;;;;;482368;246;1214;-52
2022/08/16 01:38:08;;;;;;;;;;;21.10;53.10;;;;;;482118;247;1248;-51
2022/08/16 01:40:10;;;;;;;;;;;21.10;53.00;;;;;;482089;247;1234;-51
2022/08/16 01:42:11;;;;;;;;;;;21.10;53.00;;;;;;482168;247;2205;-52
2022/08/16 01:44:12;;;;;;;;;;;21.10;53.10;;;;;;476368;246;1227;-51
2022/08/16 01:46:13;;;;;;;;;;;21.10;53.10;;;;;;470902;251;1373;-51
2022/08/16 01:48:15;;;;;;;;;;;21.10;53.10;;;;;;477129;247;1204;-51
2022/08/16 01:50:16;;;;;;;;;;;21.10;53.00;;;;;;482171;247;1194;-51
2022/08/16 01:52:18;;;;;;;;;;;21.10;53.00;;;;;;482276;247;1244;-51
2022/08/16 01:54:19;;;;;;;;;;;21.10;53.10;;;;;;482092;247;2026;-52
2022/08/16 01:56:20;;;;;;;;;;;21.10;53.00;;;;;;482307;247;1617;-50
2022/08/16 01:58:21;;;;;;;;;;;21.10;53.00;;;;;;482530;247;1278;-51
2022/08/16 02:00:23;;;;;;;;;;;21.10;53.10;;;;;;482569;247;1240;-51
2022/08/16 02:02:24;;;;;;;;;;;21.10;53.10;;;;;;482120;246;2173;-52
2022/08/16 02:04:26;;;;;;;;;;;21.10;53.00;;;;;;482355;247;1159;-51
2022/08/16 02:06:27;;;;;;;;;;;21.10;53.10;;;;;;481954;247;1293;-51
2022/08/16 02:08:28;;;;;;;;;;;21.10;53.10;;;;;;474601;247;1392;-52
2022/08/16 02:10:29;;;;;;;;;;;21.10;53.10;;;;;;482174;247;1235;-51
2022/08/16 02:12:31;;;;;;;;;;;21.10;53.10;;;;;;482056;247;1279;-51
2022/08/16 02:14:32;;;;;;;;;;;21.10;53.10;;;;;;482085;247;1304;-52
2022/08/16 02:16:33;;;;;;;;;;;21.10;53.20;;;;;;482178;247;1531;-52
2022/08/16 02:18:35;;;;;;;;;;;21.10;53.10;;;;;;482291;247;1241;-51
2022/08/16 02:20:36;;;;;;;;;;;21.10;53.10;;;;;;482418;247;1620;-51
2022/08/16 02:22:38;;;;;;;;;;;21.10;53.20;;;;;;482362;246;2158;-52
2022/08/16 02:24:39;;;;;;;;;;;21.10;53.20;;;;;;482569;247;1239;-52
2022/08/16 02:26:40;;;;;;;;;;;21.10;53.10;;;;;;482124;247;1315;-51
2022/08/16 02:28:42;;;;;;;;;;;21.10;53.20;;;;;;481949;247;1207;-51
2022/08/16 02:30:44;;;;;;;;;;;21.10;53.20;;;;;;471267;252;1827;-51
2022/08/16 02:32:44;;;;;;;;;;;21.10;53.20;;;;;;470882;252;2039;-51
2022/08/16 02:34:46;;;;;;;;;;;21.10;53.30;;;;;;477372;247;1218;-51
2022/08/16 02:36:47;;;;;;;;;;;21.10;53.20;;;;;;482244;246;1315;-52
2022/08/16 02:38:48;;;;;;;;;;;21.10;53.20;;;;;;482537;247;1312;-51
2022/08/16 02:40:50;;;;;;;;;;;21.10;53.20;;;;;;482500;247;1212;-51
2022/08/16 02:42:51;;;;;;;;;;;21.10;53.20;;;;;;482227;247;2160;-51
2022/08/16 02:44:52;;;;;;;;;;;21.10;53.20;;;;;;482128;247;1175;-52
2022/08/16 02:46:54;;;;;;;;;;;21.10;53.20;;;;;;482329;246;1252;-52
2022/08/16 02:48:55;;;;;;;;;;;21.10;53.30;;;;;;482149;247;1190;-52
2022/08/16 02:50:57;;;;;;;;;;;21.10;53.30;;;;;;482433;247;1064;-51
2022/08/16 02:52:58;;;;;;;;;;;21.10;53.20;;;;;;482195;247;1190;-51
2022/08/16 02:55:00;;;;;;;;;;;21.10;53.20;;;;;;482172;247;1066;-52
2022/08/16 02:57:01;;;;;;;;;;;21.10;53.30;;;;;;482167;247;1195;-51
2022/08/16 02:59:02;;;;;;;;;;;21.10;53.20;;;;;;482523;247;1271;-52
2022/08/16 03:01:05;;;;;;;;;;;21.10;53.30;;;;;;482348;247;1270;-52
2022/08/16 03:03:05;;;;;;;;;;;21.10;53.30;;;;;;482505;247;2288;-52
2022/08/16 03:05:06;;;;;;;;;;;21.10;53.20;;;;;;482591;247;1327;-51
2022/08/16 03:07:09;;;;;;;;;;;21.10;53.30;;;;;;482370;247;1194;-51
2022/08/16 03:09:09;;;;;;;;;;;21.10;53.20;;;;;;482130;247;2088;-51
2022/08/16 03:11:10;;;;;;;;;;;21.10;53.30;;;;;;482135;247;1237;-51
2022/08/16 03:13:12;;;;;;;;;;;21.10;53.20;;;;;;482137;247;1276;-51
2022/08/16 03:15:13;;;;;;;;;;;21.10;53.20;;;;;;476270;247;1188;-51
2022/08/16 03:17:14;;;;;;;;;;;21.10;53.20;;;;;;476591;247;1278;-52
2022/08/16 03:19:16;;;;;;;;;;;21.10;53.40;;;;;;482451;247;1347;-51
2022/08/16 03:21:17;;;;;;;;;;;21.10;53.30;;;;;;482359;247;1196;-52
2022/08/16 03:23:18;;;;;;;;;;;21.10;53.20;;;;;;482204;247;2200;-51
2022/08/16 03:25:20;;;;;;;;;;;21.10;53.20;;;;;;482561;247;1173;-51
2022/08/16 03:27:21;;;;;;;;;;;21.10;53.30;;;;;;482132;247;1248;-52
2022/08/16 03:29:23;;;;;;;;;;;21.10;53.40;;;;;;482534;246;1249;-51
2022/08/16 03:31:24;;;;;;;;;;;21.10;53.40;;;;;;482126;247;2436;-52
2022/08/16 03:33:25;;;;;;;;;;;21.10;53.40;;;;;;482082;247;1429;-51
2022/08/16 03:35:26;;;;;;;;;;;21.10;53.40;;;;;;482272;247;1324;-51
2022/08/16 03:37:28;;;;;;;;;;;21.10;53.40;;;;;;482058;247;1190;-52
2022/08/16 03:39:29;;;;;;;;;;;21.10;53.40;;;;;;479874;247;1217;-52
2022/08/16 03:41:30;;;;;;;;;;;21.10;53.40;;;;;;482421;247;1187;-52
2022/08/16 03:43:32;;;;;;;;;;;21.10;53.30;;;;;;482266;247;2204;-51
2022/08/16 03:45:33;;;;;;;;;;;21.10;53.40;;;;;;482032;247;1218;-51
2022/08/16 03:47:34;;;;;;;;;;;21.10;53.40;;;;;;482019;247;1199;-51
2022/08/16 03:49:36;;;;;;;;;;;21.10;53.40;;;;;;482256;246;1182;-51
2022/08/16 03:51:37;;;;;;;;;;;21.10;53.40;;;;;;482080;247;1311;-52
2022/08/16 03:53:38;;;;;;;;;;;21.10;53.40;;;;;;482037;247;1303;-51
2022/08/16 03:55:40;;;;;;;;;;;21.10;53.50;;;;;;482123;247;1466;-52
2022/08/16 03:57:41;;;;;;;;;;;21.10;53.40;;;;;;482294;247;1242;-51
2022/08/16 03:59:42;;;;;;;;;;;21.10;53.40;;;;;;482105;247;1255;-50
2022/08/16 04:01:44;;;;;;;;;;;21.10;53.50;;;;;;482041;247;1263;-51
2022/08/16 04:03:45;;;;;;;;;;;21.10;53.40;;;;;;482222;247;2181;-51
2022/08/16 04:05:47;;;;;;;;;;;21.10;53.50;;;;;;482082;247;1219;-51
2022/08/16 04:07:48;;;;;;;;;;;21.10;53.50;;;;;;482465;247;1557;-52
2022/08/16 04:09:49;;;;;;;;;;;21.10;53.50;;;;;;482400;247;1187;-51
2022/08/16 04:11:50;;;;;;;;;;;21.10;53.40;;;;;;481874;247;1270;-51
2022/08/16 04:13:52;;;;;;;;;;;21.10;53.40;;;;;;482146;247;1169;-52
2022/08/16 04:15:54;;;;;;;;;;;21.10;53.40;;;;;;482015;247;1296;-51
2022/08/16 04:17:54;;;;;;;;;;;21.10;53.40;;;;;;482120;247;2057;-51
2022/08/16 04:19:56;;;;;;;;;;;21.10;53.50;;;;;;482096;247;1177;-51
2022/08/16 04:21:57;;;;;;;;;;;21.10;53.50;;;;;;481969;247;1243;-52
2022/08/16 04:23:58;;;;;;;;;;;21.10;53.50;;;;;;482148;246;2149;-51
2022/08/16 04:26:00;;;;;;;;;;;21.10;53.50;;;;;;482070;246;1268;-51
2022/08/16 04:28:01;;;;;;;;;;;21.10;53.50;;;;;;482058;247;1203;-51
2022/08/16 04:30:02;;;;;;;;;;;21.10;53.40;;;;;;481943;247;1291;-51
2022/08/16 04:32:04;;;;;;;;;;;21.10;53.50;;;;;;481967;246;1198;-51
2022/08/16 04:34:05;;;;;;;;;;;21.10;53.50;;;;;;482244;247;1168;-51
2022/08/16 04:36:06;;;;;;;;;;;21.10;53.50;;;;;;481998;246;1394;-52
2022/08/16 04:38:08;;;;;;;;;;;21.10;53.50;;;;;;482097;246;1185;-51
2022/08/16 04:40:10;;;;;;;;;;;21.10;53.50;;;;;;482170;247;1379;-52
2022/08/16 04:42:11;;;;;;;;;;;21.10;53.50;;;;;;481917;247;2154;-52
2022/08/16 04:44:12;;;;;;;;;;;21.10;53.50;;;;;;482090;247;2122;-52
2022/08/16 04:46:15;;;;;;;;;;;21.10;53.50;;;;;;481805;247;1460;-51
2022/08/16 04:48:16;;;;;;;;;;;21.10;53.50;;;;;;482130;247;1999;-51
2022/08/16 04:50:17;;;;;;;;;;;21.10;53.50;;;;;;482353;247;1638;-51
2022/08/16 04:52:18;;;;;;;;;;;21.10;53.50;;;;;;482047;247;1191;-52
2022/08/16 04:54:19;;;;;;;;;;;21.10;53.50;;;;;;482396;247;1243;-51
2022/08/16 04:56:21;;;;;;;;;;;21.20;53.50;;;;;;481929;246;1197;-51
2022/08/16 04:58:22;;;;;;;;;;;21.20;52.90;;;;;;482043;247;1144;-52
2022/08/16 05:00:23;;;;;;;;;;;21.30;52.60;;;;;;482026;247;1208;-52
2022/08/16 05:02:25;;;;;;;;;;;21.30;52.40;;;;;;482271;247;1170;-52
2022/08/16 05:04:26;;;;;;;;;;;21.30;52.20;;;;;;482164;247;2196;-52
2022/08/16 05:06:28;;;;;;;;;;;21.30;52.00;;;;;;482048;247;1259;-50
2022/08/16 05:08:29;;;;;;;;;;;21.40;51.90;;;;;;481982;247;1227;-52
2022/08/16 05:10:30;;;;;;;;;;;21.40;51.80;;;;;;482301;247;1272;-52
2022/08/16 05:12:32;;;;;;;;;;;21.40;51.60;;;;;;482237;247;1207;-51
2022/08/16 05:14:33;;;;;;;;;;;21.40;51.50;;;;;;471419;252;1222;-51
2022/08/16 05:16:34;;;;;;;;;;;21.40;51.30;;;;;;471291;252;1188;-51
2022/08/16 05:18:36;;;;;;;;;;;21.40;51.20;;;;;;479847;247;1508;-52
2022/08/16 05:20:37;;;;;;;;;;;21.40;51.20;;;;;;481909;247;1177;-51
2022/08/16 05:22:38;;;;;;;;;;;21.40;51.00;;;;;;481989;247;1271;-52
2022/08/16 05:24:40;;;;;;;;;;;21.40;50.90;;;;;;482234;247;2209;-51
2022/08/16 05:26:41;;;;;;;;;;;21.40;50.80;;;;;;480148;247;1296;-52
2022/08/16 05:28:42;;;;;;;;;;;21.40;50.70;;;;;;481989;247;1272;-51
2022/08/16 05:30:44;;;;;;;;;;;21.40;50.70;;;;;;481877;247;1321;-52
2022/08/16 05:32:45;;;;;;;;;;;21.40;50.50;;;;;;481137;247;1176;-51
2022/08/16 05:34:46;;;;;;;;;;;21.50;50.50;;;;;;481779;247;1623;-52
2022/08/16 05:36:49;;;;;;;;;;;21.50;50.40;;;;;;481776;247;1240;-51
2022/08/16 05:38:50;;;;;;;;;;;21.50;50.30;;;;;;481875;247;1695;-51
2022/08/16 05:40:51;;;;;;;;;;;21.50;50.20;;;;;;481754;247;1282;-51
2022/08/16 05:42:52;;;;;;;;;;;21.50;50.20;;;;;;481666;247;2165;-51
2022/08/16 05:44:54;;;;;;;;;;;21.50;50.10;;;;;;481870;247;1241;-52
2022/08/16 05:46:55;;;;;;;;;;;21.50;50.00;;;;;;481922;247;1260;-51
2022/08/16 05:48:56;;;;;;;;;;;21.50;49.90;;;;;;481992;246;1206;-51
2022/08/16 05:50:58;;;;;;;;;;;21.50;49.90;;;;;;481962;247;1318;-51
2022/08/16 05:52:59;;;;;;;;;;;21.50;49.80;;;;;;481945;247;1189;-51
2022/08/16 05:55:01;;;;;;;;;;;21.50;49.80;;;;;;481844;247;1067;-51
2022/08/16 05:57:02;;;;;;;;;;;21.50;49.70;;;;;;481854;247;1183;-52
2022/08/16 05:59:03;;;;;;;;;;;21.50;49.60;;;;;;482060;247;1069;-51
2022/08/16 06:01:05;;;;;;;;;;;21.50;49.50;;;;;;482036;247;1243;-51
2022/08/16 06:03:06;;;;;;;;;;;21.50;49.50;;;;;;481863;247;2168;-51
2022/08/16 06:05:07;;;;;;;;;;;21.50;49.40;;;;;;481740;247;1409;-51
2022/08/16 06:07:09;;;;;;;;;;;21.50;49.40;;;;;;481959;247;1198;-51
2022/08/16 06:09:10;;;;;;;;;;;21.50;49.40;;;;;;481707;247;1258;-51
2022/08/16 06:11:11;;;;;;;;;;;21.50;49.40;;;;;;481615;247;1496;-52
2022/08/16 06:13:13;;;;;;;;;;;21.50;49.30;;;;;;481804;247;1182;-51
2022/08/16 06:15:14;;;;;;;;;;;21.50;49.20;;;;;;481879;247;1195;-51
2022/08/16 06:17:15;;;;;;;;;;;21.50;49.20;;;;;;481740;247;1288;-51
2022/08/16 06:19:17;;;;;;;;;;;21.50;49.20;;;;;;481886;247;1221;-51
2022/08/16 06:21:18;;;;;;;;;;;21.50;49.20;;;;;;481764;247;1156;-51
2022/08/16 06:23:19;;;;;;;;;;;21.50;49.10;;;;;;481817;247;2200;-51
2022/08/16 06:25:21;;;;;;;;;;;21.60;49.20;;;;;;481693;247;1197;-51
2022/08/16 06:27:22;;;;;;;;;;;21.50;49.10;;;;;;481640;247;1298;-51
2022/08/16 06:29:23;;;;;;;;;;;21.50;49.00;;;;;;481902;247;1553;-51
2022/08/16 06:31:25;;;;;;;;;;;21.50;49.00;;;;;;481785;247;1290;-51
2022/08/16 06:33:26;;;;;;;;;;;21.50;49.00;;;;;;482145;247;1249;-51
2022/08/16 06:35:27;;;;;;;;;;;21.60;49.00;;;;;;481831;247;1137;-50
2022/08/16 06:37:29;;;;;;;;;;;21.50;49.00;;;;;;481770;247;1113;-52
2022/08/16 06:39:30;;;;;;;;;;;21.50;48.90;;;;;;481930;247;1198;-51
2022/08/16 06:41:31;;;;;;;;;;;21.50;48.90;;;;;;481724;247;1268;-50
2022/08/16 06:43:33;;;;;;;;;;;21.50;48.90;;;;;;481759;247;2201;-51
2022/08/16 06:45:36;;;;;;;;;;;21.50;48.80;;;;;;481631;247;1254;-51
2022/08/16 06:47:36;;;;;;;;;;;21.50;48.80;;;;;;481490;247;2228;-51
2022/08/16 06:49:37;;;;;;;;;;;21.50;48.70;;;;;;481500;247;1331;-52
2022/08/16 06:51:38;;;;;;;;;;;21.50;48.80;;;;;;481547;247;1492;-51
2022/08/16 06:53:40;;;;;;;;;;;21.50;48.70;;;;;;481220;247;1308;-52
2022/08/16 06:55:42;;;;;;;;;;;21.50;48.80;;;;;;481613;247;1373;-51
2022/08/16 06:57:43;;;;;;;;;;;21.50;48.70;;;;;;481489;247;1778;-51
2022/08/16 06:59:44;;;;;;;;;;;21.50;48.70;;;;;;481650;247;1541;-51
2022/08/16 07:01:45;;;;;;;;;;;21.50;48.60;;;;;;481443;247;1412;-51
2022/08/16 07:03:47;;;;;;;;;;;21.50;48.60;;;;;;481433;246;2158;-52
2022/08/16 07:05:48;;;;;;;;;;;21.60;48.50;;;;;;481899;247;1171;-52
2022/08/16 07:07:51;;;;;;;;;;;21.60;48.50;;;;;;481421;247;1284;-51
2022/08/16 07:09:51;;;;;;;;;;;21.60;48.60;;;;;;481397;247;2408;-51
2022/08/16 07:11:53;;;;;;;;;;;21.60;48.50;;;;;;481338;247;1340;-51
2022/08/16 07:13:54;;;;;;;;;;;21.60;48.50;;;;;;481413;247;1199;-51
2022/08/16 07:15:55;;;;;;;;;;;21.50;48.50;;;;;;481283;247;1252;-52
2022/08/16 07:17:59;;;;;;;;;;;21.50;48.40;;;;;;481276;247;1615;-51
2022/08/16 07:19:58;;;;;;;;;;;21.50;48.40;;;;;;481405;247;2167;-52
2022/08/16 07:22:01;;;;;;;;;;;21.60;48.40;;;;;;481788;247;1304;-51
2022/08/16 07:24:02;;;;;;;;;;;21.50;48.30;;;;;;481386;246;2181;-52
2022/08/16 07:26:03;;;;;;;;;;;21.60;48.40;;;;;;481416;247;1325;-51
2022/08/16 07:28:04;;;;;;;;;;;21.60;48.30;;;;;;481410;246;1254;-51
2022/08/16 07:30:06;;;;;;;;;;;21.50;48.20;;;;;;481369;247;1262;-51
2022/08/16 07:32:07;;;;;;;;;;;21.60;48.20;;;;;;481310;247;1320;-51
2022/08/16 07:34:09;;;;;;;;;;;21.60;48.20;;;;;;481235;247;1271;-51
2022/08/16 07:36:10;;;;;;;;;;;21.60;48.10;;;;;;481251;247;1281;-52
2022/08/16 07:38:12;;;;;;;;;;;21.60;48.20;;;;;;481640;246;1321;-51
2022/08/16 07:40:13;;;;;;;;;;;21.60;48.20;;;;;;481556;246;1176;-51
2022/08/16 07:42:14;;;;;;;;;;;21.50;48.10;;;;;;481410;247;2107;-52
2022/08/16 07:44:15;;;;;;;;;;;21.50;48.10;;;;;;481857;247;2205;-52
2022/08/16 07:46:17;;;;;;;;;;;21.50;48.00;;;;;;481297;247;1017;-52
2022/08/16 07:48:18;;;;;;;;;;;21.50;48.10;;;;;;481393;247;1187;-52
2022/08/16 07:50:20;;;;;;;;;;;21.50;48.00;;;;;;481302;246;1210;-51
2022/08/16 07:52:21;;;;;;;;;;;21.50;48.00;;;;;;481273;247;1322;-52
2022/08/16 07:54:22;;;;;;;;;;;21.50;47.90;;;;;;481363;247;1130;-51
2022/08/16 07:56:23;;;;;;;;;;;21.60;48.00;;;;;;481280;247;1255;-52
2022/08/16 07:58:27;;;;;;;;;;;21.60;47.90;;;;;;481250;246;1300;-51
2022/08/16 08:00:26;;;;;;;;;;;21.60;47.90;;;;;;481277;246;1515;-51
2022/08/16 08:02:29;;;;;;;;;;;21.50;47.80;;;;;;481139;247;1189;-51
2022/08/16 08:04:31;;;;;;;;;;;21.60;47.80;;;;;;481220;247;2204;-52
2022/08/16 08:06:31;;;;;;;;;;;21.60;47.80;;;;;;481394;247;1392;-50
2022/08/16 08:08:33;;;;;;;;;;;21.60;47.80;;;;;;481058;247;1263;-51
2022/08/16 08:10:33;;;;;;;;;;;21.50;47.80;;;;;;481513;247;1333;-52
2022/08/16 08:12:35;;;;;;;;;;;21.50;47.70;;;;;;481841;247;1282;-52
2022/08/16 08:14:36;;;;;;;;;;;21.60;47.70;;;;;;481829;247;1126;-51
2022/08/16 08:16:38;;;;;;;;;;;21.60;47.70;;;;;;481042;247;1544;-52
2022/08/16 08:18:39;;;;;;;;;;;21.60;47.70;;;;;;481183;247;1180;-52
2022/08/16 08:20:43;;;;;;;;;;;21.60;47.60;;;;;;481093;247;1537;-51
2022/08/16 08:22:45;;;;;;;;;;;21.60;47.70;;;;;;481220;246;1814;-51
2022/08/16 08:24:45;;;;;;;;;;;21.60;47.70;;;;;;481296;246;2200;-51
2022/08/16 08:26:45;;;;;;;;;;;21.50;47.60;;;;;;481293;247;1980;-52
2022/08/16 08:28:47;;;;;;;;;;;21.50;47.50;;;;;;481248;247;1375;-51
2022/08/16 08:30:48;;;;;;;;;;;21.50;47.60;;;;;;481199;247;1176;-51
2022/08/16 08:32:50;;;;;;;;;;;21.60;47.60;;;;;;481273;247;1197;-50
2022/08/16 08:34:51;;;;;;;;;;;21.60;47.50;;;;;;481327;247;1290;-51
2022/08/16 08:36:52;;;;;;;;;;;21.60;47.60;;;;;;481357;247;1321;-51
2022/08/16 08:38:53;;;;;;;;;;;21.50;47.50;;;;;;481267;247;1222;-51
2022/08/16 08:40:55;;;;;;;;;;;21.60;47.60;;;;;;481212;246;1537;-51
2022/08/16 08:42:56;;;;;;;;;;;21.60;47.40;;;;;;481228;246;1215;-52
2022/08/16 08:44:58;;;;;;;;;;;21.60;47.40;;;;;;481152;247;2204;-51
2022/08/16 08:46:59;;;;;;;;;;;21.60;47.30;;;;;;481068;247;1417;-52
2022/08/16 08:49:00;;;;;;;;;;;21.60;47.30;;;;;;481252;247;1744;-51
2022/08/16 08:51:02;;;;;;;;;;;21.60;47.40;;;;;;481218;247;1334;-51
2022/08/16 08:53:03;;;;;;;;;;;21.60;47.30;;;;;;481284;247;1315;-51
2022/08/16 08:55:04;;;;;;;;;;;21.60;47.20;;;;;;481254;246;1393;-51
2022/08/16 08:57:06;;;;;;;;;;;21.60;47.20;;;;;;481314;247;1292;-50
2022/08/16 08:59:07;;;;;;;;;;;21.70;47.20;;;;;;481122;247;1681;-51
2022/08/16 09:01:09;;;;;;;;;;;21.60;47.10;;;;;;481124;247;1319;-51
2022/08/16 09:03:10;;;;;;;;;;;21.70;47.10;;;;;;481138;246;1649;-51
2022/08/16 09:05:12;;;;;;;;;;;21.70;47.20;;;;;;481165;247;2223;-51
2022/08/16 09:07:13;;;;;;;;;;;21.70;47.20;;;;;;481260;246;1161;-52
2022/08/16 09:09:15;;;;;;;;;;;21.70;47.10;;;;;;481805;246;1246;-51
2022/08/16 09:11:16;;;;;;;;;;;21.70;47.10;;;;;;481206;247;1308;-51
2022/08/16 09:13:17;;;;;;;;;;;21.70;47.10;;;;;;481273;246;1559;-52
2022/08/16 09:15:19;;;;;;;;;;;21.70;47.10;;;;;;481212;247;1100;-51
2022/08/16 09:17:20;;;;;;;;;;;21.70;47.20;;;;;;481929;246;1236;-51
2022/08/16 09:19:21;;;;;;;;;;;21.70;47.30;;;;;;481285;247;1223;-51
2022/08/16 09:21:22;;;;;;;;;;;21.70;47.30;;;;;;481238;247;1407;-51
2022/08/16 09:23:24;;;;;;;;;;;21.70;47.30;;;;;;481552;247;1175;-51
2022/08/16 09:25:25;;;;;;;;;;;21.70;47.20;;;;;;481846;246;2281;-51
2022/08/16 09:27:28;;;;;;;;;;;21.70;47.20;;;;;;481488;247;1245;-51
2022/08/16 09:29:28;;;;;;;;;;;21.70;47.20;;;;;;481460;247;1358;-52
2022/08/16 09:31:30;;;;;;;;;;;21.70;47.10;;;;;;481445;247;1027;-51
2022/08/16 09:33:31;;;;;;;;;;;21.80;47.10;;;;;;481371;247;1322;-51
2022/08/16 09:35:32;;;;;;;;;;;21.80;47.10;;;;;;481316;247;1345;-52
2022/08/16 09:37:33;;;;;;;;;;;21.80;47.00;;;;;;481319;247;1281;-51
2022/08/16 09:39:35;;;;;;;;;;;21.80;47.00;;;;;;481675;247;1256;-51
2022/08/16 09:41:36;;;;;;;;;;;21.70;46.90;;;;;;481623;247;1165;-51
2022/08/16 09:43:38;;;;;;;;;;;21.80;46.90;;;;;;481595;247;1192;-51
2022/08/16 09:45:41;;;;;;;;;;;21.70;46.80;;;;;;481280;247;2196;-50
2022/08/16 09:47:41;;;;;;;;;;;21.80;46.90;;;;;;481012;247;1516;-52
2022/08/16 09:49:42;;;;;;;;;;;21.80;46.90;;;;;;481321;247;1163;-51
2022/08/16 09:51:43;;;;;;;;;;;21.70;46.70;;;;;;481444;247;1188;-51
2022/08/16 09:53:46;;;;;;;;;;;21.80;46.80;;;;;;481395;247;1544;-51
2022/08/16 09:55:46;;;;;;;;;;;21.80;46.80;;;;;;481275;246;1346;-51
2022/08/16 09:57:47;;;;;;;;;;;21.80;46.70;;;;;;481284;247;1286;-52
2022/08/16 09:59:49;;;;;;;;;;;21.80;46.60;;;;;;481460;247;1281;-51
2022/08/16 10:01:50;;;;;;;;;;;21.80;46.60;;;;;;481407;247;1166;-51
2022/08/16 10:03:51;;;;;;;;;;;21.80;46.60;;;;;;481442;247;1337;-51
2022/08/16 10:05:53;;;;;;;;;;;21.80;46.60;;;;;;481400;247;2197;-51
2022/08/16 10:07:54;;;;;;;;;;;21.80;46.60;;;;;;481603;247;1154;-51
2022/08/16 10:09:55;;;;;;;;;;;21.80;46.60;;;;;;481305;247;1251;-51
2022/08/16 10:14:16;;;;;;;;;;;21.80;46.50;;;;;;478486;247;1318;-51
2022/08/16 10:16:18;;;;;;;;;;;21.80;46.50;;;;;;481386;246;1346;-51
2022/08/16 10:18:19;;;;;;;;;;;21.80;46.50;;;;;;481442;246;1255;-51
2022/08/16 10:20:22;;;;;;;;;;;21.80;46.40;;;;;;481462;246;1310;-51
2022/08/16 10:22:22;;;;;;;;;;;21.80;46.50;;;;;;481441;247;2101;-50
2022/08/16 10:24:23;;;;;;;;;;;21.80;46.40;;;;;;481395;247;1152;-51
2022/08/16 10:26:25;;;;;;;;;;;21.80;46.50;;;;;;481251;247;2134;-51
2022/08/16 10:28:26;;;;;;;;;;;21.90;46.60;;;;;;481094;247;1207;-51
2022/08/16 10:30:27;;;;;;;;;;;21.80;46.50;;;;;;481486;247;1201;-51
2022/08/16 10:32:29;;;;;;;;;;;21.80;46.50;;;;;;481394;247;1306;-51
2022/08/16 10:34:30;;;;;;;;;;;21.90;46.50;;;;;;481461;247;1256;-51
2022/08/16 10:36:31;;;;;;;;;;;21.90;46.50;;;;;;481533;247;1196;-51
2022/08/16 10:38:33;;;;;;;;;;;21.90;46.50;;;;;;481497;247;1228;-52
2022/08/16 10:40:34;;;;;;;;;;;21.80;46.50;;;;;;481621;247;1286;-51
2022/08/16 10:42:35;;;;;;;;;;;21.90;46.50;;;;;;481666;247;1459;-51
2022/08/16 10:44:37;;;;;;;;;;;21.90;46.50;;;;;;481604;247;1219;-51
2022/08/16 10:46:38;;;;;;;;;;;21.90;46.50;;;;;;481564;247;2193;-51
2022/08/16 10:48:39;;;;;;;;;;;21.90;46.50;;;;;;481806;247;1189;-51
2022/08/16 10:50:41;;;;;;;;;;;21.90;46.50;;;;;;481416;247;1243;-51
2022/08/16 10:52:42;;;;;;;;;;;21.90;46.40;;;;;;481701;247;1190;-51
2022/08/16 10:54:43;;;;;;;;;;;21.90;46.50;;;;;;481283;247;1188;-51
2022/08/16 10:56:45;;;;;;;;;;;21.90;46.40;;;;;;481384;247;1205;-51
2022/08/16 10:58:47;;;;;;;;;;;21.90;46.50;;;;;;481350;247;1328;-52
2022/08/16 11:00:48;;;;;;;;;;;21.90;46.50;;;;;;481467;247;2199;-51
2022/08/16 11:02:51;;;;;;;;;;;21.90;46.50;;;;;;481544;247;1314;-50
2022/08/16 11:04:50;;;;;;;;;;;21.90;46.50;;;;;;481378;247;2197;-51
2022/08/16 11:06:51;;;;;;;;;;;21.90;46.40;;;;;;481365;247;1320;-51
2022/08/16 11:08:53;;;;;;;;;;;21.90;46.40;;;;;;481364;247;1293;-51
2022/08/16 11:10:54;;;;;;;;;;;21.90;46.40;;;;;;481399;247;1624;-51
2022/08/16 11:12:56;;;;;;;;;;;21.90;46.30;;;;;;481578;247;1300;-51
2022/08/16 11:14:57;;;;;;;;;;;21.90;46.40;;;;;;481378;247;1321;-51
2022/08/16 11:17:00;;;;;;;;;;;21.90;46.30;;;;;;481409;247;1201;-51
2022/08/16 11:19:01;;;;;;;;;;;22.00;46.30;;;;;;481340;247;2087;-51
2022/08/16 11:21:03;;;;;;;;;;;21.90;46.40;;;;;;481360;247;1258;-51
2022/08/16 11:23:03;;;;;;;;;;;21.90;46.50;;;;;;481072;247;1298;-51
2022/08/16 11:25:05;;;;;;;;;;;21.90;46.50;;;;;;481233;247;2185;-52
2022/08/16 11:27:07;;;;;;;;;;;21.90;46.50;;;;;;481315;247;1274;-51
2022/08/16 11:29:08;;;;;;;;;;;21.90;46.50;;;;;;481368;247;1782;-51
2022/08/16 11:31:09;;;;;;;;;;;21.90;46.50;;;;;;481319;247;2042;-51
2022/08/16 11:33:10;;;;;;;;;;;21.90;46.40;;;;;;481392;247;1213;-52
2022/08/16 11:35:11;;;;;;;;;;;21.90;46.50;;;;;;481245;247;1205;-51
2022/08/16 11:37:13;;;;;;;;;;;21.90;46.40;;;;;;481177;247;1316;-50
2022/08/16 11:39:14;;;;;;;;;;;21.90;46.30;;;;;;481338;247;1211;-51
2022/08/16 11:41:15;;;;;;;;;;;21.90;46.30;;;;;;481491;247;1188;-51
2022/08/16 11:43:17;;;;;;;;;;;21.90;46.30;;;;;;481416;247;1287;-51
2022/08/16 11:45:18;;;;;;;;;;;21.90;46.30;;;;;;481407;247;2181;-51
2022/08/16 11:47:19;;;;;;;;;;;21.90;46.30;;;;;;481423;247;1470;-51
2022/08/16 11:49:21;;;;;;;;;;;21.90;46.20;;;;;;481418;247;1086;-51
2022/08/16 11:51:22;;;;;;;;;;;21.90;46.20;;;;;;481390;247;1317;-51
2022/08/16 11:53:23;;;;;;;;;;;21.90;46.10;;;;;;481402;247;1139;-51
2022/08/16 11:55:25;;;;;;;;;;;22.00;46.10;;;;;;481517;247;1304;-51
2022/08/16 11:57:26;;;;;;;;;;;22.00;46.10;;;;;;481500;246;1254;-51
2022/08/16 11:59:28;;;;;;;;;;;22.00;46.10;;;;;;481486;246;1289;-51